Time;durP1;ratioP1;P1;durP2;ratioP2;P2;SDS_P1;SDS_P2;PMS_P1;PMS_P2;Temp;Humidity;BMP_temperature;BMP_pressure;BME280_temperature;BME280_humidity;BME280_pressure;Samples;Min_cycle;Max_cycle;Signal;HPM_P1;HPM_P2
2023/04/07 00:01:51;;;;;;;9.50;6.93;;;7.30;66.30;;;;;;5091537;28;20296;-61
2023/04/07 00:04:18;;;;;;;10.13;6.87;;;7.30;66.60;;;;;;5089444;28;20213;-61
2023/04/07 00:06:45;;;;;;;11.47;7.93;;;7.30;67.00;;;;;;5089344;28;20622;-61
2023/04/07 00:09:12;;;;;;;10.70;8.00;;;7.30;67.30;;;;;;5093039;28;20215;-61
2023/04/07 00:11:39;;;;;;;11.57;7.60;;;7.20;67.40;;;;;;5089006;28;20194;-62
2023/04/07 00:14:06;;;;;;;12.83;7.10;;;7.20;67.70;;;;;;5089906;28;20701;-61
2023/04/07 00:16:34;;;;;;;9.53;7.20;;;7.10;67.50;;;;;;5093211;28;20261;-61
2023/04/07 00:19:01;;;;;;;12.03;7.10;;;7.10;67.20;;;;;;5092136;28;20201;-61
2023/04/07 00:21:28;;;;;;;10.70;7.30;;;7.00;66.80;;;;;;5089593;28;20204;-61
2023/04/07 00:23:55;;;;;;;9.03;6.50;;;7.00;66.40;;;;;;5092083;28;20231;-61
2023/04/07 00:26:24;;;;;;;10.50;6.47;;;7.00;65.90;;;;;;5089755;28;20205;-61
2023/04/07 00:28:51;;;;;;;10.10;7.30;;;7.00;65.70;;;;;;5093638;28;20244;-61
2023/04/07 00:31:18;;;;;;;12.87;7.83;;;7.00;65.70;;;;;;5088718;28;20406;-61
2023/04/07 00:33:47;;;;;;;11.67;7.20;;;7.00;66.10;;;;;;5091294;28;20194;-61
2023/04/07 00:36:14;;;;;;;8.70;6.37;;;7.00;66.20;;;;;;5091378;28;20255;-61
2023/04/07 00:38:41;;;;;;;9.87;7.17;;;7.00;66.50;;;;;;5090013;28;20697;-61
2023/04/07 00:41:08;;;;;;;11.93;7.63;;;7.00;66.50;;;;;;5096341;28;20665;-61
2023/04/07 00:43:35;;;;;;;9.40;6.63;;;7.00;67.10;;;;;;5091224;28;20822;-61
2023/04/07 00:46:02;;;;;;;10.57;6.53;;;7.00;66.20;;;;;;5095856;28;20647;-61
2023/04/07 00:48:30;;;;;;;9.93;6.80;;;7.00;66.40;;;;;;5096052;28;20233;-61
2023/04/07 00:50:57;;;;;;;9.77;6.47;;;7.00;66.40;;;;;;5096006;28;20225;-61
2023/04/07 00:53:24;;;;;;;10.97;6.87;;;7.00;66.30;;;;;;5094413;28;20203;-61
2023/04/07 00:55:51;;;;;;;10.30;6.63;;;7.00;66.30;;;;;;5094245;28;20270;-61
2023/04/07 00:58:18;;;;;;;9.60;6.50;;;7.00;66.40;;;;;;5093012;28;20202;-61
2023/04/07 01:00:55;;;;;;;9.03;6.47;;;7.00;66.80;;;;;;5093887;28;20247;-62
2023/04/07 01:03:34;;;;;;;9.27;6.50;;;7.00;67.10;;;;;;5094140;28;20201;-61
2023/04/07 01:06:04;;;;;;;9.50;6.67;;;7.00;67.50;;;;;;5085992;28;20564;-61
2023/04/07 01:09:00;;;;;;;8.87;6.50;;;7.00;67.90;;;;;;5095099;28;20206;-62
2023/04/07 01:11:41;;;;;;;9.13;6.70;;;6.90;68.20;;;;;;5101209;28;20236;-62
2023/04/07 01:14:18;;;;;;;7.87;6.20;;;6.90;68.30;;;;;;5088827;28;20204;-61
2023/04/07 01:16:56;;;;;;;9.17;6.67;;;6.80;68.50;;;;;;5109451;28;20201;-61
2023/04/07 01:19:35;;;;;;;8.77;6.53;;;6.80;68.50;;;;;;5094336;28;20205;-61
2023/04/07 01:22:16;;;;;;;8.17;6.47;;;6.80;68.50;;;;;;5085325;28;20288;-61
2023/04/07 01:25:12;;;;;;;10.07;6.83;;;6.70;68.30;;;;;;5106427;28;20205;-61
2023/04/07 01:27:47;;;;;;;10.43;6.60;;;6.70;68.10;;;;;;5091496;28;20194;-61
2023/04/07 01:30:16;;;;;;;8.80;6.07;;;6.70;67.80;;;;;;5089475;28;20221;-61
2023/04/07 01:32:49;;;;;;;8.57;7.00;;;6.70;67.50;;;;;;5092890;28;20199;-61
2023/04/07 01:35:18;;;;;;;10.17;7.07;;;6.70;67.20;;;;;;5095580;28;20202;-61
2023/04/07 01:37:47;;;;;;;9.10;6.47;;;6.70;67.10;;;;;;5092514;28;20269;-61
2023/04/07 01:40:16;;;;;;;8.13;6.10;;;6.70;67.30;;;;;;5094583;28;20206;-61
2023/04/07 01:42:44;;;;;;;7.63;6.10;;;6.70;67.20;;;;;;5096006;28;20193;-61
2023/04/07 01:53:29;;;;;;;11.50;5.90;;;6.60;66.90;;;;;;5093427;28;20517;-61
2023/04/07 01:55:56;;;;;;;8.87;6.77;;;6.60;66.90;;;;;;5093889;28;20207;-61
2023/04/07 01:58:24;;;;;;;8.70;6.80;;;6.50;67.00;;;;;;5094034;28;20295;-61
2023/04/07 02:00:51;;;;;;;10.60;6.63;;;6.50;67.10;;;;;;5093841;28;20675;-61
2023/04/07 02:03:33;;;;;;;9.30;6.37;;;6.50;67.20;;;;;;5107816;28;20235;-61
2023/04/07 02:06:07;;;;;;;8.90;5.70;;;6.50;67.20;;;;;;5109453;28;20217;-61
2023/04/07 02:08:37;;;;;;;10.77;6.30;;;6.40;67.00;;;;;;5093445;28;20664;-61
2023/04/07 02:11:06;;;;;;;9.53;5.97;;;6.40;67.10;;;;;;5094900;28;20251;-61
2023/04/07 02:13:37;;;;;;;7.93;6.03;;;6.40;66.90;;;;;;5091698;28;20193;-61
2023/04/07 02:16:06;;;;;;;8.73;5.80;;;6.40;67.00;;;;;;5093111;28;20215;-61
2023/04/07 02:18:33;;;;;;;7.97;6.10;;;6.40;67.10;;;;;;5087079;28;20189;-61
2023/04/07 02:21:02;;;;;;;9.67;6.00;;;6.40;67.50;;;;;;5092644;28;20205;-61
2023/04/07 02:23:29;;;;;;;9.30;6.53;;;6.30;67.90;;;;;;5089289;28;20634;-61
2023/04/07 02:25:57;;;;;;;11.53;6.27;;;6.40;68.10;;;;;;5094242;28;20206;-61
2023/04/07 02:28:24;;;;;;;12.47;6.30;;;6.30;68.20;;;;;;5090534;28;20275;-61
2023/04/07 02:30:51;;;;;;;9.40;6.47;;;6.30;68.40;;;;;;5091729;28;20502;-61
2023/04/07 02:33:18;;;;;;;8.77;5.37;;;6.30;68.30;;;;;;5091766;28;20231;-61
2023/04/07 02:35:45;;;;;;;8.13;5.97;;;6.20;68.30;;;;;;5094126;28;20214;-61
2023/04/07 02:38:12;;;;;;;7.67;6.17;;;6.20;68.60;;;;;;5092402;28;20254;-61
2023/04/07 02:40:39;;;;;;;8.67;6.60;;;6.20;68.90;;;;;;5088819;28;20664;-61
2023/04/07 02:43:06;;;;;;;7.87;5.50;;;6.20;69.00;;;;;;5070883;28;20266;-63
2023/04/07 02:45:33;;;;;;;7.07;5.43;;;6.20;69.20;;;;;;5087940;28;20530;-61
2023/04/07 02:48:00;;;;;;;8.57;5.97;;;6.10;69.30;;;;;;5092250;28;20228;-61
2023/04/07 02:50:27;;;;;;;6.60;5.13;;;6.10;69.10;;;;;;5092614;28;20242;-61
2023/04/07 02:52:55;;;;;;;9.27;6.00;;;6.10;69.40;;;;;;5092902;28;20245;-61
2023/04/07 02:55:22;;;;;;;7.73;5.87;;;6.20;69.70;;;;;;5093748;28;20185;-60
2023/04/07 02:57:49;;;;;;;8.13;5.90;;;6.10;69.70;;;;;;5091754;28;20202;-61
2023/04/07 03:00:30;;;;;;;10.00;6.23;;;6.20;69.70;;;;;;5084400;28;20618;-61
2023/04/07 03:03:09;;;;;;;8.90;5.97;;;6.10;69.70;;;;;;5090629;28;20206;-62
2023/04/07 03:05:39;;;;;;;10.00;5.97;;;6.10;69.40;;;;;;5086181;28;20202;-61
2023/04/07 03:08:08;;;;;;;10.10;7.30;;;6.10;69.10;;;;;;5093484;28;20201;-61
2023/04/07 03:10:38;;;;;;;11.10;6.67;;;6.10;68.90;;;;;;5092292;28;20554;-61
2023/04/07 03:13:07;;;;;;;10.17;6.90;;;6.10;68.70;;;;;;5091782;28;20296;-61
2023/04/07 03:15:35;;;;;;;11.57;6.27;;;6.10;68.60;;;;;;5110137;28;20201;-61
2023/04/07 03:18:02;;;;;;;10.67;7.43;;;6.10;68.60;;;;;;5091437;28;20215;-60
2023/04/07 03:20:30;;;;;;;12.27;6.63;;;6.00;68.60;;;;;;5089476;28;20215;-61
2023/04/07 03:23:02;;;;;;;9.50;7.07;;;6.00;68.60;;;;;;5089694;28;20221;-61
2023/04/07 03:25:30;;;;;;;9.87;6.40;;;6.00;68.50;;;;;;5086247;28;20258;-61
2023/04/07 03:27:58;;;;;;;9.57;6.30;;;6.00;68.40;;;;;;5087731;28;20228;-61
2023/04/07 03:30:29;;;;;;;13.13;7.00;;;6.00;68.40;;;;;;5090774;28;20555;-61
2023/04/07 03:32:56;;;;;;;9.33;6.60;;;5.90;68.50;;;;;;5092446;28;20258;-61
2023/04/07 03:35:23;;;;;;;14.87;6.20;;;5.90;68.60;;;;;;5090275;28;20279;-61
2023/04/07 03:37:50;;;;;;;9.63;5.63;;;5.90;68.60;;;;;;5092351;28;20194;-61
2023/04/07 03:40:19;;;;;;;11.53;6.57;;;5.90;68.40;;;;;;5092765;28;20255;-61
2023/04/07 03:42:47;;;;;;;7.40;6.33;;;5.80;68.20;;;;;;5092296;28;20201;-61
2023/04/07 03:45:16;;;;;;;8.43;6.27;;;5.80;68.20;;;;;;5089890;28;20547;-61
2023/04/07 03:47:48;;;;;;;9.47;6.67;;;5.70;68.70;;;;;;5091137;28;20205;-60
2023/04/07 03:50:16;;;;;;;12.27;7.30;;;5.60;69.90;;;;;;5090714;28;20675;-60
2023/04/07 03:52:53;;;;;;;11.73;6.97;;;5.60;69.80;;;;;;5089375;28;20234;-61
2023/04/07 03:55:24;;;;;;;10.20;6.20;;;5.50;70.10;;;;;;5091051;28;20682;-60
2023/04/07 03:57:56;;;;;;;13.40;7.03;;;5.40;70.40;;;;;;5092611;28;20193;-60
2023/04/07 04:00:30;;;;;;;13.63;7.53;;;5.30;70.90;;;;;;5092181;28;20278;-60
2023/04/07 04:03:05;;;;;;;11.50;7.47;;;5.30;71.00;;;;;;5090234;28;20201;-61
2023/04/07 04:05:34;;;;;;;8.97;6.80;;;5.20;71.00;;;;;;5091371;28;20650;-61
2023/04/07 04:08:02;;;;;;;10.40;6.63;;;5.20;71.30;;;;;;5089944;28;20212;-60
2023/04/07 04:10:31;;;;;;;10.33;6.30;;;5.20;71.60;;;;;;5089895;28;20251;-61
2023/04/07 04:13:02;;;;;;;9.20;6.90;;;5.10;72.10;;;;;;5092721;28;20205;-61
2023/04/07 04:15:30;;;;;;;9.50;7.03;;;5.10;72.30;;;;;;5096072;28;20228;-61
2023/04/07 04:17:58;;;;;;;10.97;7.33;;;5.10;72.20;;;;;;5095993;28;20215;-61
2023/04/07 04:20:25;;;;;;;13.40;6.97;;;5.10;72.20;;;;;;5096428;28;20564;-61
2023/04/07 04:22:52;;;;;;;8.80;6.20;;;5.00;72.30;;;;;;5095363;28;20225;-61
2023/04/07 04:25:20;;;;;;;11.30;6.90;;;5.00;72.50;;;;;;5099119;28;20201;-61
2023/04/07 04:27:52;;;;;;;11.13;6.67;;;5.00;72.60;;;;;;5092000;28;20189;-61
2023/04/07 04:30:22;;;;;;;7.80;6.57;;;4.90;72.70;;;;;;5093749;28;20224;-61
2023/04/07 04:33:02;;;;;;;10.93;6.93;;;4.90;72.90;;;;;;5093406;28;20196;-60
2023/04/07 04:35:49;;;;;;;10.90;6.47;;;4.80;73.10;;;;;;5096655;28;20201;-62
2023/04/07 04:38:18;;;;;;;7.50;6.00;;;4.80;73.50;;;;;;5099631;28;20200;-61
2023/04/07 04:40:52;;;;;;;8.77;6.83;;;4.80;73.90;;;;;;5094197;28;20208;-61
2023/04/07 04:43:25;;;;;;;13.20;8.30;;;4.70;74.30;;;;;;5099478;28;20220;-61
2023/04/07 04:45:52;;;;;;;11.10;7.20;;;4.70;74.60;;;;;;5114645;28;20291;-61
2023/04/07 04:48:23;;;;;;;8.43;6.40;;;4.70;74.90;;;;;;5098376;28;20200;-61
2023/04/07 04:50:50;;;;;;;10.07;7.43;;;4.60;75.20;;;;;;5096840;28;20213;-61
2023/04/07 04:53:17;;;;;;;9.47;7.10;;;4.60;75.30;;;;;;5097340;28;20197;-61
2023/04/07 04:55:51;;;;;;;9.47;6.10;;;4.60;75.50;;;;;;5098757;28;20208;-61
2023/04/07 04:58:22;;;;;;;9.00;6.60;;;4.60;75.70;;;;;;5096653;28;20222;-60
2023/04/07 05:00:58;;;;;;;9.37;6.70;;;4.60;75.90;;;;;;5097841;28;20556;-61
2023/04/07 05:03:39;;;;;;;9.77;7.17;;;4.60;76.00;;;;;;5095557;28;20288;-61
2023/04/07 05:06:15;;;;;;;8.77;6.20;;;4.60;76.20;;;;;;5096353;28;20313;-61
2023/04/07 05:08:44;;;;;;;10.63;7.27;;;4.60;76.40;;;;;;5096888;28;20503;-61
2023/04/07 05:11:12;;;;;;;11.73;7.83;;;4.60;76.60;;;;;;5097557;28;20221;-61
2023/04/07 05:13:41;;;;;;;9.17;7.30;;;4.70;76.80;;;;;;5095602;28;20197;-61
2023/04/07 05:16:09;;;;;;;9.77;7.30;;;4.70;76.90;;;;;;5091720;28;20204;-61
2023/04/07 05:18:36;;;;;;;9.07;6.87;;;4.70;76.90;;;;;;5096252;28;20593;-61
2023/04/07 05:21:04;;;;;;;13.77;7.63;;;4.80;76.90;;;;;;5109500;28;20214;-61
2023/04/07 05:23:35;;;;;;;14.57;8.73;;;4.90;76.80;;;;;;5096490;28;20207;-61
2023/04/07 05:26:03;;;;;;;9.93;8.13;;;5.00;76.80;;;;;;5083009;28;20208;-61
2023/04/07 05:28:30;;;;;;;12.20;8.37;;;5.10;76.50;;;;;;5091822;28;20228;-61
2023/04/07 05:31:02;;;;;;;12.73;8.50;;;5.20;76.40;;;;;;5091948;28;20228;-61
2023/04/07 05:33:34;;;;;;;14.77;7.87;;;5.20;76.20;;;;;;5092660;28;20200;-61
2023/04/07 05:36:02;;;;;;;13.20;8.87;;;5.20;76.00;;;;;;5095354;28;20284;-61
2023/04/07 05:38:31;;;;;;;15.53;10.10;;;5.20;75.80;;;;;;5094732;28;20601;-61
2023/04/07 05:41:05;;;;;;;12.00;8.23;;;5.20;75.60;;;;;;5094836;28;20664;-61
2023/04/07 05:43:34;;;;;;;17.93;7.90;;;5.20;75.50;;;;;;5093957;28;20209;-61
2023/04/07 05:46:01;;;;;;;18.50;8.03;;;5.20;75.50;;;;;;5094529;28;20236;-61
2023/04/07 05:48:30;;;;;;;15.60;8.40;;;5.30;75.80;;;;;;5090719;28;20216;-61
2023/04/07 05:50:57;;;;;;;12.70;8.10;;;5.30;76.00;;;;;;5095105;28;20219;-61
2023/04/07 05:53:25;;;;;;;14.33;8.90;;;5.30;76.10;;;;;;5093186;28;20689;-61
2023/04/07 05:55:52;;;;;;;13.07;8.10;;;5.40;76.20;;;;;;5094675;28;20233;-61
2023/04/07 05:58:36;;;;;;;14.43;7.97;;;5.40;76.20;;;;;;5092865;28;20261;-61
2023/04/07 06:01:03;;;;;;;12.43;8.27;;;5.50;76.40;;;;;;5086698;28;20227;-61
2023/04/07 06:03:30;;;;;;;13.13;7.97;;;5.60;76.90;;;;;;5092431;28;20283;-61
2023/04/07 06:06:08;;;;;;;15.23;8.00;;;5.80;76.70;;;;;;5093468;28;20214;-61
2023/04/07 06:08:35;;;;;;;11.67;7.60;;;6.00;75.90;;;;;;5083088;28;20212;-61
2023/04/07 06:11:03;;;;;;;11.47;8.10;;;6.20;75.60;;;;;;5091623;28;20221;-61
2023/04/07 06:13:29;;;;;;;12.73;8.20;;;6.20;75.50;;;;;;5094731;28;20208;-62
2023/04/07 06:15:57;;;;;;;12.87;7.30;;;6.30;75.50;;;;;;5093928;28;20193;-61
2023/04/07 06:18:24;;;;;;;9.37;7.30;;;6.30;75.60;;;;;;5090803;28;20272;-60
2023/04/07 06:20:51;;;;;;;10.17;7.97;;;6.40;75.80;;;;;;5094850;28;20254;-62
2023/04/07 06:23:18;;;;;;;10.27;7.93;;;6.50;76.10;;;;;;5092742;28;20212;-60
2023/04/07 06:25:46;;;;;;;15.33;7.67;;;6.50;76.20;;;;;;5092746;28;20221;-60
2023/04/07 06:28:13;;;;;;;13.93;8.33;;;6.50;76.30;;;;;;5090820;28;20278;-60
2023/04/07 06:30:40;;;;;;;10.63;6.90;;;6.60;76.30;;;;;;5088716;28;20196;-61
2023/04/07 06:33:10;;;;;;;14.90;8.73;;;6.70;76.50;;;;;;5090829;28;20293;-60
2023/04/07 06:35:40;;;;;;;14.80;8.40;;;6.80;76.90;;;;;;5092352;28;20249;-60
2023/04/07 06:38:07;;;;;;;11.33;8.17;;;6.90;77.20;;;;;;5092222;28;20202;-60
2023/04/07 06:40:34;;;;;;;11.53;8.87;;;7.00;77.30;;;;;;5091906;28;20209;-60
2023/04/07 06:43:02;;;;;;;14.17;9.03;;;7.20;76.50;;;;;;5092218;28;20205;-60
2023/04/07 06:45:56;;;;;;;15.83;9.20;;;7.40;75.50;;;;;;5089578;28;20214;-59
2023/04/07 06:48:23;;;;;;;12.30;8.80;;;7.60;74.20;;;;;;5091871;28;20496;-59
2023/04/07 06:50:50;;;;;;;15.17;9.60;;;7.80;73.40;;;;;;5094056;28;20202;-62
2023/04/07 06:53:17;;;;;;;14.90;9.97;;;7.90;72.70;;;;;;5092241;28;20191;-61
2023/04/07 06:55:45;;;;;;;14.47;10.13;;;8.10;72.40;;;;;;5094251;28;20198;-61
2023/04/07 06:58:12;;;;;;;12.33;9.67;;;8.30;72.70;;;;;;5089589;28;20224;-60
2023/04/07 07:00:39;;;;;;;14.70;10.50;;;8.40;72.90;;;;;;5093548;28;20219;-60
2023/04/07 07:03:06;;;;;;;18.70;10.40;;;8.60;72.80;;;;;;5090986;28;20570;-62
2023/04/07 07:05:33;;;;;;;15.37;10.30;;;8.80;72.80;;;;;;5090710;28;20207;-61
2023/04/07 07:08:00;;;;;;;15.03;11.40;;;9.00;72.50;;;;;;5088781;28;20201;-60
2023/04/07 07:10:27;;;;;;;15.67;10.07;;;9.10;71.80;;;;;;5092409;28;20256;-62
2023/04/07 07:12:54;;;;;;;16.10;10.63;;;9.30;71.20;;;;;;5090066;28;20215;-62
2023/04/07 07:15:21;;;;;;;17.27;10.17;;;9.40;70.40;;;;;;5092887;28;20203;-61
2023/04/07 07:17:48;;;;;;;16.97;10.70;;;9.60;70.20;;;;;;5092271;28;20278;-63
2023/04/07 07:20:15;;;;;;;15.73;10.17;;;9.80;70.20;;;;;;5089238;28;20541;-61
2023/04/07 07:22:42;;;;;;;11.33;9.57;;;10.00;69.70;;;;;;5089932;28;20675;-62
2023/04/07 07:25:09;;;;;;;12.97;10.03;;;10.10;69.30;;;;;;5088803;28;20219;-62
2023/04/07 07:27:36;;;;;;;12.40;9.47;;;10.30;69.10;;;;;;5093788;28;20291;-63
2023/04/07 07:30:04;;;;;;;14.03;9.67;;;10.60;68.50;;;;;;5089881;28;20224;-63
2023/04/07 07:32:31;;;;;;;11.77;9.37;;;10.80;67.80;;;;;;5092105;28;20328;-63
2023/04/07 07:34:58;;;;;;;13.30;9.33;;;11.00;66.90;;;;;;5088699;28;20288;-62
2023/04/07 07:37:26;;;;;;;12.67;9.83;;;11.20;66.10;;;;;;5092273;28;20217;-62
2023/04/07 07:39:55;;;;;;;15.67;8.43;;;11.40;65.40;;;;;;5089348;28;20251;-62
2023/04/07 07:42:22;;;;;;;11.53;9.37;;;11.60;64.40;;;;;;5088932;28;20579;-61
2023/04/07 07:44:49;;;;;;;11.83;8.77;;;11.80;63.00;;;;;;5090990;28;20209;-65
2023/04/07 07:47:16;;;;;;;14.17;9.40;;;12.00;62.30;;;;;;5090626;28;20699;-64
2023/04/07 07:49:43;;;;;;;13.20;9.33;;;12.20;62.10;;;;;;5088322;28;20203;-64
2023/04/07 07:52:10;;;;;;;13.17;8.73;;;12.40;61.80;;;;;;5089674;28;20709;-62
2023/04/07 07:54:37;;;;;;;14.13;9.60;;;12.50;61.30;;;;;;5089567;28;20183;-63
2023/04/07 07:57:05;;;;;;;12.53;9.17;;;12.70;60.10;;;;;;5090628;28;20207;-64
2023/04/07 07:59:32;;;;;;;14.40;8.90;;;12.80;58.80;;;;;;5092623;28;20223;-65
2023/04/07 08:01:59;;;;;;;12.20;9.83;;;13.00;58.40;;;;;;5091007;28;20201;-62
2023/04/07 08:04:26;;;;;;;13.30;10.20;;;13.20;57.90;;;;;;5093621;28;20220;-62
2023/04/07 08:06:53;;;;;;;12.53;8.87;;;13.30;57.50;;;;;;5092833;28;20216;-63
2023/04/07 08:09:21;;;;;;;13.40;10.10;;;13.50;57.90;;;;;;5092857;28;20211;-63
2023/04/07 08:11:48;;;;;;;11.57;9.77;;;13.70;56.70;;;;;;5092720;28;20288;-62
2023/04/07 08:14:15;;;;;;;14.23;10.50;;;13.70;56.10;;;;;;5090840;28;20319;-62
2023/04/07 08:16:42;;;;;;;12.97;9.87;;;13.70;55.20;;;;;;5091711;28;20207;-62
2023/04/07 08:19:10;;;;;;;14.73;9.70;;;13.80;54.20;;;;;;5090870;28;20188;-63
2023/04/07 08:21:37;;;;;;;11.93;9.73;;;13.80;53.60;;;;;;5090430;28;20212;-63
2023/04/07 08:24:05;;;;;;;14.10;10.07;;;13.80;53.70;;;;;;5091190;28;20197;-62
2023/04/07 08:26:32;;;;;;;13.60;10.80;;;13.90;54.30;;;;;;5090450;28;20704;-62
2023/04/07 08:28:59;;;;;;;24.77;11.03;;;14.10;55.00;;;;;;5090049;28;20204;-63
2023/04/07 08:31:27;;;;;;;16.67;10.33;;;14.30;52.40;;;;;;5091581;28;20555;-62
2023/04/07 08:33:56;;;;;;;14.80;10.57;;;14.30;52.60;;;;;;5092032;28;20200;-62
2023/04/07 08:36:25;;;;;;;16.17;10.53;;;14.40;51.50;;;;;;5091180;28;20230;-62
2023/04/07 08:38:52;;;;;;;16.73;10.63;;;14.40;51.60;;;;;;5091349;28;20509;-63
2023/04/07 08:41:27;;;;;;;15.67;11.13;;;14.50;52.70;;;;;;5089492;28;20212;-62
2023/04/07 08:43:57;;;;;;;14.67;9.70;;;14.60;53.20;;;;;;5089722;28;20280;-62
2023/04/07 08:46:24;;;;;;;14.47;9.50;;;14.80;52.50;;;;;;5090619;28;20225;-63
2023/04/07 08:48:54;;;;;;;12.37;9.30;;;15.00;48.70;;;;;;5092471;28;20200;-63
2023/04/07 08:51:32;;;;;;;13.03;10.30;;;15.10;48.50;;;;;;5090536;28;20264;-63
2023/04/07 08:54:10;;;;;;;14.40;10.40;;;15.20;49.20;;;;;;5089564;28;20208;-63
2023/04/07 08:56:40;;;;;;;14.33;10.37;;;15.40;48.90;;;;;;5090791;28;20194;-62
2023/04/07 08:59:09;;;;;;;12.97;9.63;;;15.50;48.40;;;;;;5092191;28;20549;-63
2023/04/07 09:01:37;;;;;;;17.70;9.63;;;15.60;49.20;;;;;;5095866;28;20201;-63
2023/04/07 09:04:08;;;;;;;14.07;9.73;;;15.70;49.00;;;;;;5094295;28;20201;-62
2023/04/07 09:06:36;;;;;;;12.53;9.13;;;15.80;48.40;;;;;;5094323;28;20198;-62
2023/04/07 09:09:06;;;;;;;13.70;9.77;;;15.90;47.20;;;;;;5095284;28;20237;-62
2023/04/07 09:11:38;;;;;;;12.90;9.87;;;16.00;47.10;;;;;;5093861;28;20205;-62
2023/04/07 09:14:06;;;;;;;14.47;9.20;;;16.10;47.20;;;;;;5094861;28;20213;-63
2023/04/07 09:16:34;;;;;;;13.43;9.23;;;16.40;47.50;;;;;;5094002;28;20397;-62
2023/04/07 09:19:01;;;;;;;16.10;9.73;;;16.50;46.60;;;;;;5092530;28;20207;-66
2023/04/07 09:21:49;;;;;;;15.57;9.83;;;16.70;46.40;;;;;;5093365;28;20207;-63
2023/04/07 09:24:30;;;;;;;13.23;9.53;;;16.80;45.40;;;;;;5095712;28;20273;-63
2023/04/07 09:27:16;;;;;;;13.07;8.87;;;16.90;44.60;;;;;;5088745;28;20199;-62
2023/04/07 09:29:45;;;;;;;15.10;10.10;;;16.90;46.00;;;;;;5092269;28;20284;-62
2023/04/07 09:32:20;;;;;;;11.40;9.37;;;16.90;45.50;;;;;;5090248;28;20264;-64
2023/04/07 09:34:58;;;;;;;13.53;9.87;;;16.90;45.50;;;;;;5092795;28;20203;-63
2023/04/07 09:37:25;;;;;;;12.03;9.03;;;16.90;44.10;;;;;;5091295;28;20194;-62
2023/04/07 09:39:52;;;;;;;14.00;10.07;;;16.90;43.70;;;;;;5096794;28;20528;-63
2023/04/07 09:42:20;;;;;;;14.13;10.37;;;16.80;45.00;;;;;;5092162;28;20209;-63
2023/04/07 09:44:47;;;;;;;12.87;9.17;;;16.80;45.20;;;;;;5094660;28;20262;-62
2023/04/07 09:47:14;;;;;;;13.20;9.83;;;16.90;45.40;;;;;;5087654;28;20200;-63
2023/04/07 09:49:52;;;;;;;10.43;9.30;;;17.00;45.80;;;;;;5095123;28;20225;-62
2023/04/07 09:52:25;;;;;;;12.33;10.67;;;17.10;45.50;;;;;;5093365;28;20261;-63
2023/04/07 09:54:52;;;;;;;14.70;10.27;;;17.20;45.00;;;;;;5094206;28;20201;-62
2023/04/07 09:57:22;;;;;;;13.70;9.50;;;17.30;44.50;;;;;;5095411;28;20217;-62
2023/04/07 09:59:50;;;;;;;15.07;9.77;;;17.40;44.50;;;;;;5091332;28;20202;-65
2023/04/07 10:02:17;;;;;;;15.07;9.90;;;17.50;45.50;;;;;;5094635;28;20756;-62
2023/04/07 10:04:44;;;;;;;12.93;9.87;;;17.60;44.70;;;;;;5093183;28;20242;-62
2023/04/07 10:07:12;;;;;;;14.63;9.10;;;17.80;45.40;;;;;;5093155;28;20198;-62
2023/04/07 10:09:39;;;;;;;13.27;9.40;;;18.10;44.30;;;;;;5092480;28;20195;-69
2023/04/07 10:12:06;;;;;;;14.30;10.17;;;18.40;44.00;;;;;;5093587;28;20699;-63
2023/04/07 10:14:35;;;;;;;15.67;9.30;;;18.70;43.70;;;;;;5093772;28;20208;-63
2023/04/07 10:17:04;;;;;;;12.43;9.93;;;19.10;43.10;;;;;;5090493;28;20225;-62
2023/04/07 10:19:33;;;;;;;10.07;8.40;;;19.30;41.80;;;;;;5094689;28;20216;-62
2023/04/07 10:22:04;;;;;;;12.07;8.83;;;19.30;41.20;;;;;;5093606;28;20198;-63
2023/04/07 10:24:34;;;;;;;12.33;8.37;;;19.20;40.10;;;;;;5089943;28;20204;-63
2023/04/07 10:27:07;;;;;;;12.13;9.03;;;19.10;39.50;;;;;;5093580;28;20200;-63
2023/04/07 10:29:39;;;;;;;15.27;10.53;;;19.00;40.10;;;;;;5092728;28;20207;-63
2023/04/07 10:32:07;;;;;;;14.77;9.53;;;19.00;40.10;;;;;;5092872;28;20235;-63
2023/04/07 10:34:49;;;;;;;12.87;9.73;;;18.80;39.60;;;;;;5092474;28;20263;-62
2023/04/07 10:37:20;;;;;;;15.30;9.97;;;18.70;39.50;;;;;;5093427;28;20199;-63
2023/04/07 10:39:48;;;;;;;13.50;9.93;;;18.50;39.60;;;;;;5093469;28;20300;-63
2023/04/07 10:42:40;;;;;;;20.50;9.87;;;18.30;39.10;;;;;;5090856;28;20227;-63
2023/04/07 10:45:08;;;;;;;14.03;9.73;;;18.30;40.90;;;;;;5093266;28;20200;-63
2023/04/07 10:47:59;;;;;;;13.33;9.27;;;18.40;41.40;;;;;;5086277;28;20208;-63
2023/04/07 10:50:28;;;;;;;17.90;9.43;;;18.60;40.90;;;;;;5088394;28;20300;-63
2023/04/07 10:53:07;;;;;;;14.90;9.13;;;18.80;39.10;;;;;;5086363;28;20255;-64
2023/04/07 10:55:37;;;;;;;14.37;9.30;;;19.00;38.40;;;;;;5091695;28;20193;-62
2023/04/07 10:58:16;;;;;;;11.13;9.10;;;19.10;36.90;;;;;;5084281;28;20284;-61
2023/04/07 11:00:59;;;;;;;8.87;7.47;;;19.20;37.80;;;;;;5092153;28;20189;-62
2023/04/07 11:03:28;;;;;;;10.73;7.60;;;19.50;37.60;;;;;;5090299;28;20217;-62
2023/04/07 11:06:07;;;;;;;12.13;7.07;;;19.60;37.40;;;;;;5090019;28;20216;-62
2023/04/07 11:08:35;;;;;;;6.70;5.70;;;19.60;33.60;;;;;;5090204;28;20201;-63
2023/04/07 11:11:07;;;;;;;8.23;6.80;;;19.60;33.90;;;;;;5091054;28;20228;-63
2023/04/07 11:13:43;;;;;;;9.23;7.60;;;19.70;32.10;;;;;;5091402;28;20231;-63
2023/04/07 11:16:11;;;;;;;7.53;5.83;;;19.70;35.60;;;;;;5092902;28;20210;-63
2023/04/07 11:18:40;;;;;;;10.60;7.20;;;19.80;36.00;;;;;;5092232;28;20185;-63
2023/04/07 11:21:08;;;;;;;11.00;9.30;;;19.90;35.40;;;;;;5090888;28;20209;-63
2023/04/07 11:23:42;;;;;;;8.93;7.43;;;19.90;33.00;;;;;;5093679;28;20601;-63
2023/04/07 11:26:11;;;;;;;10.67;8.30;;;19.90;35.30;;;;;;5091022;28;20197;-63
2023/04/07 11:28:52;;;;;;;12.07;8.80;;;19.90;35.80;;;;;;5091940;28;20589;-63
2023/04/07 11:31:27;;;;;;;9.37;7.60;;;19.90;33.80;;;;;;5092020;28;20208;-62
2023/04/07 11:33:56;;;;;;;10.97;8.67;;;19.80;35.90;;;;;;5090667;28;20246;-63
2023/04/07 11:36:34;;;;;;;16.20;9.80;;;19.80;36.20;;;;;;5091752;28;20207;-63
2023/04/07 11:39:01;;;;;;;13.07;9.43;;;19.80;34.80;;;;;;5092741;28;20506;-63
2023/04/07 11:41:31;;;;;;;11.07;8.57;;;19.70;37.30;;;;;;5090334;28;20686;-63
2023/04/07 11:44:11;;;;;;;12.67;9.50;;;19.70;38.10;;;;;;5092823;28;20661;-62
2023/04/07 11:46:55;;;;;;;12.13;10.47;;;19.80;39.50;;;;;;5090487;28;20201;-63
2023/04/07 11:49:26;;;;;;;15.27;10.87;;;19.80;38.20;;;;;;5091500;28;20214;-62
2023/04/07 11:52:11;;;;;;;13.83;10.57;;;19.80;35.90;;;;;;5088410;28;20270;-64
2023/04/07 11:54:45;;;;;;;13.23;10.07;;;19.60;35.60;;;;;;5091551;28;20219;-63
2023/04/07 11:57:13;;;;;;;14.50;11.23;;;19.70;36.50;;;;;;5087685;28;20199;-63
2023/04/07 11:59:41;;;;;;;16.90;11.30;;;19.70;36.30;;;;;;5091174;28;20228;-63
2023/04/07 12:02:08;;;;;;;12.70;9.93;;;19.60;34.80;;;;;;5086654;28;20186;-63
2023/04/07 12:04:38;;;;;;;12.87;10.33;;;19.50;37.00;;;;;;5092088;28;20219;-64
2023/04/07 12:07:08;;;;;;;14.80;9.57;;;19.40;37.50;;;;;;5090997;28;20258;-63
2023/04/07 12:09:35;;;;;;;14.00;9.83;;;19.40;38.20;;;;;;5091572;28;20575;-63
2023/04/07 12:12:07;;;;;;;14.30;10.83;;;19.40;39.20;;;;;;5090264;28;20524;-63
2023/04/07 12:14:35;;;;;;;13.03;10.13;;;19.50;38.40;;;;;;5088183;28;20574;-63
2023/04/07 12:17:02;;;;;;;15.67;9.97;;;19.70;38.10;;;;;;5090835;28;20196;-63
2023/04/07 12:19:34;;;;;;;14.23;10.17;;;19.80;37.00;;;;;;5089289;28;20200;-63
2023/04/07 12:22:02;;;;;;;12.33;9.57;;;19.90;33.90;;;;;;5091081;28;20284;-63
2023/04/07 12:24:31;;;;;;;12.57;9.33;;;20.00;34.50;;;;;;5090430;28;20208;-62
2023/04/07 12:26:58;;;;;;;11.73;9.33;;;20.10;36.10;;;;;;5089854;28;20225;-63
2023/04/07 12:29:25;;;;;;;13.60;9.20;;;20.10;36.00;;;;;;5090129;28;20549;-65
2023/04/07 12:31:52;;;;;;;12.40;9.30;;;20.20;36.30;;;;;;5090819;28;20199;-64
2023/04/07 12:34:19;;;;;;;11.87;8.87;;;20.20;34.00;;;;;;5090481;28;20229;-65
2023/04/07 12:36:47;;;;;;;11.90;9.17;;;20.10;34.00;;;;;;5096609;28;20281;-63
2023/04/07 12:39:16;;;;;;;12.83;9.13;;;19.90;34.70;;;;;;5092640;28;20321;-63
2023/04/07 12:41:44;;;;;;;11.63;9.07;;;19.70;32.80;;;;;;5097290;28;20607;-63
2023/04/07 12:44:11;;;;;;;11.63;8.70;;;19.50;35.30;;;;;;5095383;28;20291;-63
2023/04/07 12:46:39;;;;;;;13.43;9.40;;;19.30;37.00;;;;;;5095751;28;20194;-62
2023/04/07 12:49:05;;;;;;;12.57;9.03;;;19.10;37.30;;;;;;5096384;28;20239;-62
2023/04/07 12:51:33;;;;;;;11.10;8.30;;;19.00;37.30;;;;;;5094903;28;20263;-64
2023/04/07 12:54:00;;;;;;;11.03;8.00;;;18.90;38.10;;;;;;5096805;28;20677;-63
2023/04/07 12:56:27;;;;;;;11.00;8.63;;;18.80;37.70;;;;;;5093802;28;20202;-61
2023/04/07 12:58:55;;;;;;;11.43;7.60;;;18.70;37.90;;;;;;5094595;28;20609;-62
2023/04/07 13:01:21;;;;;;;18.30;8.10;;;18.70;39.00;;;;;;5091717;28;20193;-64
2023/04/07 13:03:48;;;;;;;11.40;7.73;;;18.60;37.70;;;;;;5094819;28;20212;-62
2023/04/07 13:06:16;;;;;;;10.23;7.67;;;18.50;37.70;;;;;;5093559;28;20229;-63